DAL9573 SKCL-SEQM
Flight info
| Callsign | DAL9573 |
|---|---|
| Flight time | N/A |
| Altitude | 24000 |
| Route | CLO R567 PPN W48 MER G675 QIT DCT |
| Aircraft | A319/M-V/N |
Departure
| Time | 2026-04-25 06:56 |
|---|---|
| Airport | Alfonso Bonilla Aragon International Airport (SKCL) |
Arrival
| Time | N/A |
|---|---|
| Airport | Mariscal Sucre International Airport (SEQM) |
| Time | Latitude | Longitude | Altitude | Speed | Heading |
|---|---|---|---|---|---|
| 2026-04-25 06:43 | 3.53719 | -76.38636 | 2437 ft | 0 kts | 334° |
| 2026-04-25 06:46 | 3.53718 | -76.38635 | 2437 ft | 1 kts | 334° |
| 2026-04-25 06:47 | 3.53706 | -76.38629 | 2437 ft | 3 kts | 325° |
| 2026-04-25 06:47 | 3.53692 | -76.38615 | 2437 ft | 3 kts | 303° |
| 2026-04-25 06:47 | 3.53685 | -76.38597 | 2437 ft | 3 kts | 281° |
| 2026-04-25 06:47 | 3.53684 | -76.38576 | 2437 ft | 3 kts | 261° |
| 2026-04-25 06:48 | 3.53690 | -76.38557 | 2437 ft | 3 kts | 246° |
| 2026-04-25 06:48 | 3.53698 | -76.38538 | 2437 ft | 3 kts | 238° |
| 2026-04-25 06:48 | 3.53712 | -76.38523 | 2437 ft | 3 kts | 216° |
| 2026-04-25 06:48 | 3.53731 | -76.38515 | 2437 ft | 3 kts | 193° |
| 2026-04-25 06:49 | 3.53735 | -76.38514 | 2437 ft | 0 kts | 190° |
| 2026-04-25 06:52 | 3.53733 | -76.38514 | 2437 ft | 2 kts | 190° |
| 2026-04-25 06:52 | 3.53676 | -76.38468 | 2437 ft | 17 kts | 129° |
| 2026-04-25 06:52 | 3.53611 | -76.38413 | 2437 ft | 6 kts | 196° |
| 2026-04-25 06:52 | 3.53514 | -76.38433 | 2437 ft | 23 kts | 189° |
| 2026-04-25 06:53 | 3.53325 | -76.38466 | 2437 ft | 31 kts | 194° |
| 2026-04-25 06:53 | 3.53089 | -76.38514 | 2437 ft | 38 kts | 191° |
| 2026-04-25 06:53 | 3.52981 | -76.38522 | 2437 ft | 5 kts | 148° |
| 2026-04-25 06:53 | 3.52965 | -76.38511 | 2437 ft | 6 kts | 144° |
| 2026-04-25 06:54 | 3.52947 | -76.38479 | 2437 ft | 5 kts | 75° |
| 2026-04-25 06:54 | 3.52991 | -76.38415 | 2437 ft | 16 kts | 43° |
| 2026-04-25 06:54 | 3.53050 | -76.38391 | 2437 ft | 0 kts | 1° |
| 2026-04-25 06:54 | 3.53055 | -76.38390 | 2437 ft | 0 kts | 9° |
| 2026-04-25 06:55 | 3.53097 | -76.38383 | 2437 ft | 32 kts | 9° |
| 2026-04-25 06:55 | 3.53613 | -76.38302 | 2437 ft | 114 kts | 10° |
| 2026-04-25 06:55 | 3.54613 | -76.38123 | 2541 ft | 167 kts | 10° |
| 2026-04-25 06:56 | 3.55712 | -76.37925 | 3520 ft | 153 kts | 10° |
| 2026-04-25 06:56 | 3.56885 | -76.37714 | 4138 ft | 195 kts | 10° |
| 2026-04-25 06:56 | 3.58394 | -76.37402 | 4728 ft | 239 kts | 12° |
| 2026-04-25 06:56 | 3.60004 | -76.37088 | 6018 ft | 234 kts | 10° |
| 2026-04-25 06:57 | 3.61576 | -76.36820 | 7324 ft | 227 kts | 9° |
| 2026-04-25 06:57 | 3.63147 | -76.36630 | 8325 ft | 232 kts | 360° |
| 2026-04-25 06:57 | 3.64697 | -76.37111 | 9127 ft | 239 kts | 330° |
| 2026-04-25 06:57 | 3.65858 | -76.38314 | 9947 ft | 246 kts | 301° |
| 2026-04-25 06:58 | 3.66316 | -76.39973 | 10755 ft | 253 kts | 272° |
| 2026-04-25 06:58 | 3.65931 | -76.41700 | 11541 ft | 261 kts | 245° |
| 2026-04-25 06:58 | 3.64757 | -76.43100 | 12311 ft | 268 kts | 218° |
| 2026-04-25 06:58 | 3.63026 | -76.43840 | 13064 ft | 277 kts | 191° |
| 2026-04-25 06:59 | 3.61084 | -76.43861 | 13859 ft | 283 kts | 175° |
| 2026-04-25 06:59 | 3.59102 | -76.43648 | 14635 ft | 289 kts | 172° |
| 2026-04-25 06:59 | 3.57077 | -76.43378 | 15359 ft | 297 kts | 172° |
| 2026-04-25 06:59 | 3.55000 | -76.43085 | 16047 ft | 305 kts | 171° |
| 2026-04-25 07:00 | 3.52864 | -76.42776 | 16703 ft | 314 kts | 171° |
| 2026-04-25 07:00 | 3.50702 | -76.42456 | 17320 ft | 322 kts | 171° |
| 2026-04-25 07:00 | 3.48459 | -76.42111 | 17911 ft | 330 kts | 171° |
| 2026-04-25 07:00 | 3.46154 | -76.41739 | 18472 ft | 339 kts | 171° |
| 2026-04-25 07:01 | 3.43799 | -76.41344 | 18998 ft | 348 kts | 171° |
| 2026-04-25 07:01 | 3.41385 | -76.40918 | 19494 ft | 356 kts | 170° |
| 2026-04-25 07:01 | 3.38888 | -76.40701 | 19860 ft | 366 kts | 182° |
| 2026-04-25 07:01 | 3.36359 | -76.41164 | 20213 ft | 374 kts | 196° |
| 2026-04-25 07:02 | 3.33831 | -76.41918 | 20614 ft | 382 kts | 197° |
| 2026-04-25 07:02 | 3.31233 | -76.42589 | 21038 ft | 389 kts | 194° |
| 2026-04-25 07:02 | 3.28569 | -76.43173 | 21513 ft | 393 kts | 193° |
| 2026-04-25 07:02 | 3.25880 | -76.43752 | 22000 ft | 396 kts | 193° |
| 2026-04-25 07:03 | 3.23174 | -76.44341 | 22474 ft | 399 kts | 193° |
| 2026-04-25 07:03 | 3.20482 | -76.44929 | 22919 ft | 402 kts | 193° |
| 2026-04-25 07:03 | 3.17736 | -76.45528 | 23344 ft | 406 kts | 193° |
| 2026-04-25 07:03 | 3.14964 | -76.46133 | 23748 ft | 409 kts | 193° |
| 2026-04-25 07:04 | 3.12166 | -76.46743 | 23958 ft | 414 kts | 193° |
| 2026-04-25 07:04 | 3.09309 | -76.47367 | 24013 ft | 425 kts | 193° |
| 2026-04-25 07:04 | 3.06377 | -76.48007 | 24026 ft | 436 kts | 193° |
| 2026-04-25 07:04 | 3.03380 | -76.48660 | 24028 ft | 444 kts | 193° |
| 2026-04-25 07:05 | 3.00348 | -76.49321 | 24027 ft | 447 kts | 193° |
| 2026-04-25 07:05 | 2.97308 | -76.49985 | 24022 ft | 447 kts | 193° |
| 2026-04-25 07:05 | 2.94266 | -76.50648 | 24015 ft | 447 kts | 193° |
| 2026-04-25 07:05 | 2.91213 | -76.51314 | 24012 ft | 448 kts | 193° |
| 2026-04-25 07:06 | 2.88174 | -76.51977 | 24010 ft | 448 kts | 193° |
| 2026-04-25 07:06 | 2.85132 | -76.52640 | 24008 ft | 448 kts | 193° |
| 2026-04-25 07:06 | 2.82085 | -76.53305 | 24005 ft | 448 kts | 193° |
| 2026-04-25 07:06 | 2.79034 | -76.53970 | 24000 ft | 448 kts | 193° |
| 2026-04-25 07:07 | 2.75989 | -76.54634 | 23998 ft | 448 kts | 193° |
| 2026-04-25 07:07 | 2.72984 | -76.55290 | 23998 ft | 448 kts | 193° |
| 2026-04-25 07:07 | 2.69938 | -76.55954 | 23997 ft | 448 kts | 193° |
| 2026-04-25 07:07 | 2.66906 | -76.56615 | 23997 ft | 448 kts | 193° |
| 2026-04-25 07:08 | 2.63844 | -76.57283 | 23996 ft | 448 kts | 193° |
| 2026-04-25 07:08 | 2.60791 | -76.57948 | 23995 ft | 448 kts | 193° |
| 2026-04-25 07:08 | 2.58766 | -76.58390 | 23995 ft | 448 kts | 193° |
| 2026-04-25 07:08 | 2.55722 | -76.59054 | 23995 ft | 448 kts | 193° |
| 2026-04-25 07:09 | 2.51677 | -76.59935 | 23995 ft | 448 kts | 193° |
| 2026-04-25 07:09 | 2.48626 | -76.60583 | 23991 ft | 448 kts | 192° |
| 2026-04-25 07:09 | 2.46554 | -76.60965 | 23981 ft | 448 kts | 193° |
| 2026-04-25 07:09 | 2.43627 | -76.61915 | 23965 ft | 447 kts | 203° |
| 2026-04-25 07:10 | 2.40876 | -76.63364 | 23964 ft | 446 kts | 213° |
| 2026-04-25 07:10 | 2.38424 | -76.65257 | 23967 ft | 445 kts | 223° |
| 2026-04-25 07:10 | 2.36184 | -76.67399 | 23990 ft | 444 kts | 225° |
| 2026-04-25 07:10 | 2.33956 | -76.69543 | 23997 ft | 444 kts | 225° |
| 2026-04-25 07:11 | 2.31733 | -76.71683 | 23999 ft | 443 kts | 225° |
| 2026-04-25 07:11 | 2.29508 | -76.73812 | 23998 ft | 443 kts | 224° |
| 2026-04-25 07:11 | 2.27173 | -76.75821 | 23998 ft | 443 kts | 220° |
| 2026-04-25 07:11 | 2.24793 | -76.77772 | 24006 ft | 442 kts | 220° |
| 2026-04-25 07:12 | 2.22413 | -76.79710 | 24008 ft | 442 kts | 220° |
| 2026-04-25 07:12 | 2.17641 | -76.83596 | 24014 ft | 441 kts | 220° |
| 2026-04-25 07:12 | 2.15260 | -76.85534 | 24017 ft | 441 kts | 220° |
| 2026-04-25 07:13 | 2.12877 | -76.87475 | 24020 ft | 441 kts | 220° |
| 2026-04-25 07:13 | 2.10500 | -76.89410 | 24031 ft | 441 kts | 220° |
| 2026-04-25 07:13 | 2.08152 | -76.91321 | 24041 ft | 441 kts | 219° |
| 2026-04-25 07:13 | 2.05776 | -76.93255 | 24046 ft | 440 kts | 219° |
| 2026-04-25 07:14 | 2.03392 | -76.95196 | 24050 ft | 440 kts | 219° |
| 2026-04-25 07:14 | 2.01020 | -76.97126 | 24056 ft | 440 kts | 219° |
| 2026-04-25 07:14 | 1.98645 | -76.99060 | 24060 ft | 440 kts | 219° |
| 2026-04-25 07:14 | 1.96278 | -77.00986 | 24069 ft | 440 kts | 219° |
| 2026-04-25 07:15 | 1.93895 | -77.02926 | 24076 ft | 440 kts | 219° |
| 2026-04-25 07:15 | 1.91515 | -77.04862 | 24092 ft | 440 kts | 219° |
| 2026-04-25 07:15 | 1.89144 | -77.06792 | 24098 ft | 440 kts | 219° |
| 2026-04-25 07:15 | 1.86807 | -77.08693 | 24100 ft | 439 kts | 219° |
| 2026-04-25 07:16 | 1.84429 | -77.10628 | 24102 ft | 439 kts | 219° |
| 2026-04-25 07:16 | 1.82059 | -77.12558 | 24129 ft | 441 kts | 220° |
| 2026-04-25 07:16 | 1.79542 | -77.14341 | 24108 ft | 443 kts | 211° |
| 2026-04-25 07:16 | 1.76780 | -77.15700 | 24129 ft | 443 kts | 205° |
| 2026-04-25 07:17 | 1.73926 | -77.16877 | 24147 ft | 444 kts | 201° |
| 2026-04-25 07:17 | 1.71021 | -77.17928 | 24162 ft | 444 kts | 200° |
| 2026-04-25 07:17 | 1.68106 | -77.18960 | 24168 ft | 443 kts | 200° |
| 2026-04-25 07:17 | 1.65199 | -77.19988 | 24176 ft | 443 kts | 200° |
| 2026-04-25 07:18 | 1.62288 | -77.21018 | 24180 ft | 444 kts | 200° |
| 2026-04-25 07:18 | 1.59375 | -77.22048 | 24182 ft | 444 kts | 200° |
| 2026-04-25 07:18 | 1.56465 | -77.23078 | 24193 ft | 444 kts | 200° |
| 2026-04-25 07:18 | 1.53544 | -77.24112 | 24206 ft | 444 kts | 200° |
| 2026-04-25 07:19 | 1.50640 | -77.25139 | 24210 ft | 444 kts | 200° |
| 2026-04-25 07:19 | 1.47718 | -77.26172 | 24214 ft | 444 kts | 200° |
| 2026-04-25 07:19 | 1.44839 | -77.27191 | 24218 ft | 445 kts | 200° |
| 2026-04-25 07:19 | 1.41932 | -77.28249 | 24208 ft | 445 kts | 202° |
| 2026-04-25 07:20 | 1.39186 | -77.29683 | 24201 ft | 444 kts | 211° |
| 2026-04-25 07:20 | 1.36570 | -77.31322 | 24208 ft | 444 kts | 214° |
| 2026-04-25 07:20 | 1.34039 | -77.33096 | 24216 ft | 444 kts | 216° |
| 2026-04-25 07:20 | 1.31524 | -77.34895 | 24218 ft | 444 kts | 216° |
| 2026-04-25 07:21 | 1.29014 | -77.36694 | 24224 ft | 445 kts | 216° |
| 2026-04-25 07:21 | 1.26497 | -77.38496 | 24225 ft | 445 kts | 216° |
| 2026-04-25 07:21 | 1.23978 | -77.40298 | 24225 ft | 445 kts | 216° |
| 2026-04-25 07:21 | 1.21452 | -77.42105 | 24221 ft | 446 kts | 216° |
| 2026-04-25 07:22 | 1.18930 | -77.43910 | 24218 ft | 447 kts | 216° |
| 2026-04-25 07:22 | 1.16401 | -77.45719 | 24215 ft | 447 kts | 216° |
| 2026-04-25 07:22 | 1.13870 | -77.47529 | 24211 ft | 448 kts | 216° |
| 2026-04-25 07:22 | 1.11332 | -77.49344 | 24208 ft | 448 kts | 216° |
| 2026-04-25 07:23 | 1.08794 | -77.51160 | 24206 ft | 449 kts | 216° |
| 2026-04-25 07:23 | 1.06252 | -77.52978 | 24203 ft | 449 kts | 216° |
| 2026-04-25 07:23 | 1.03712 | -77.54795 | 24197 ft | 450 kts | 216° |
| 2026-04-25 07:23 | 1.01165 | -77.56616 | 24195 ft | 450 kts | 216° |
| 2026-04-25 07:24 | 0.98612 | -77.58442 | 24191 ft | 450 kts | 216° |
| 2026-04-25 07:24 | 0.96093 | -77.60243 | 24178 ft | 451 kts | 216° |
| 2026-04-25 07:24 | 0.93545 | -77.62065 | 24174 ft | 451 kts | 216° |
| 2026-04-25 07:24 | 0.90986 | -77.63896 | 24171 ft | 451 kts | 216° |
| 2026-04-25 07:25 | 0.88437 | -77.65719 | 24171 ft | 451 kts | 216° |
| 2026-04-25 07:25 | 0.85943 | -77.67619 | 24242 ft | 450 kts | 220° |
| 2026-04-25 07:25 | 0.83613 | -77.69717 | 24310 ft | 451 kts | 223° |
| 2026-04-25 07:25 | 0.81319 | -77.71858 | 24381 ft | 451 kts | 224° |
| 2026-04-25 07:26 | 0.79023 | -77.73998 | 24400 ft | 451 kts | 223° |
| 2026-04-25 07:26 | 0.76756 | -77.76109 | 24410 ft | 450 kts | 223° |
| 2026-04-25 07:26 | 0.74433 | -77.78271 | 24409 ft | 450 kts | 223° |
| 2026-04-25 07:26 | 0.72165 | -77.80381 | 24406 ft | 450 kts | 223° |
| 2026-04-25 07:27 | 0.69876 | -77.82512 | 24375 ft | 450 kts | 223° |
| 2026-04-25 07:27 | 0.67556 | -77.84671 | 24363 ft | 449 kts | 223° |
| 2026-04-25 07:27 | 0.65301 | -77.86770 | 24353 ft | 449 kts | 223° |
| 2026-04-25 07:27 | 0.63014 | -77.88898 | 24343 ft | 448 kts | 223° |
| 2026-04-25 07:28 | 0.60732 | -77.91022 | 24331 ft | 448 kts | 224° |
| 2026-04-25 07:28 | 0.58447 | -77.93151 | 24319 ft | 448 kts | 224° |
| 2026-04-25 07:28 | 0.56167 | -77.95274 | 24267 ft | 449 kts | 223° |
| 2026-04-25 07:28 | 0.53895 | -77.97391 | 24223 ft | 449 kts | 223° |
| 2026-04-25 07:29 | 0.51592 | -77.99536 | 24194 ft | 449 kts | 223° |
| 2026-04-25 07:29 | 0.49304 | -78.01667 | 24175 ft | 448 kts | 223° |
| 2026-04-25 07:29 | 0.47050 | -78.03766 | 24170 ft | 448 kts | 223° |
| 2026-04-25 07:29 | 0.44766 | -78.05891 | 24157 ft | 448 kts | 223° |
| 2026-04-25 07:30 | 0.42482 | -78.08016 | 24140 ft | 448 kts | 223° |
| 2026-04-25 07:30 | 0.40206 | -78.10134 | 24132 ft | 448 kts | 223° |
| 2026-04-25 07:30 | 0.37924 | -78.12257 | 24129 ft | 447 kts | 223° |
| 2026-04-25 07:30 | 0.35646 | -78.14376 | 24128 ft | 447 kts | 223° |
| 2026-04-25 07:31 | 0.33362 | -78.16502 | 24122 ft | 447 kts | 223° |
| 2026-04-25 07:31 | 0.31085 | -78.18621 | 24120 ft | 447 kts | 223° |
| 2026-04-25 07:31 | 0.28804 | -78.20743 | 24119 ft | 447 kts | 223° |
| 2026-04-25 07:31 | 0.26526 | -78.22862 | 24119 ft | 447 kts | 223° |
| 2026-04-25 07:32 | 0.24243 | -78.24987 | 24121 ft | 447 kts | 223° |
| 2026-04-25 07:32 | 0.21968 | -78.27103 | 24124 ft | 447 kts | 223° |
| 2026-04-25 07:32 | 0.19689 | -78.29223 | 24104 ft | 446 kts | 223° |
| 2026-04-25 07:32 | 0.17428 | -78.31327 | 23724 ft | 440 kts | 223° |
| 2026-04-25 07:33 | 0.15231 | -78.33371 | 23257 ft | 432 kts | 223° |
| 2026-04-25 07:33 | 0.13049 | -78.35402 | 22831 ft | 424 kts | 223° |
| 2026-04-25 07:33 | 0.10910 | -78.37392 | 22467 ft | 416 kts | 223° |
| 2026-04-25 07:33 | 0.08817 | -78.39339 | 22158 ft | 407 kts | 223° |
| 2026-04-25 07:34 | 0.06756 | -78.41250 | 21893 ft | 399 kts | 222° |
| 2026-04-25 07:34 | 0.04497 | -78.42811 | 21621 ft | 391 kts | 208° |
| 2026-04-25 07:34 | 0.01984 | -78.43750 | 21411 ft | 383 kts | 194° |
| 2026-04-25 07:34 | -0.00629 | -78.44008 | 21243 ft | 374 kts | 178° |
| 2026-04-25 07:35 | -0.03127 | -78.43568 | 21106 ft | 365 kts | 162° |
| 2026-04-25 07:35 | -0.05383 | -78.42493 | 21025 ft | 355 kts | 150° |
| 2026-04-25 07:35 | -0.07537 | -78.41354 | 20922 ft | 347 kts | 157° |
| 2026-04-25 07:35 | -0.09874 | -78.40858 | 20752 ft | 342 kts | 175° |
| 2026-04-25 07:36 | -0.12210 | -78.41115 | 20616 ft | 336 kts | 192° |
| 2026-04-25 07:36 | -0.14444 | -78.41726 | 20585 ft | 328 kts | 195° |
| 2026-04-25 07:36 | -0.16623 | -78.42364 | 20443 ft | 325 kts | 196° |
| 2026-04-25 07:36 | -0.18849 | -78.43049 | 19486 ft | 345 kts | 199° |
| 2026-04-25 07:37 | -0.20968 | -78.44263 | 18661 ft | 361 kts | 215° |
| 2026-04-25 07:37 | -0.23014 | -78.45749 | 18468 ft | 355 kts | 216° |
| 2026-04-25 07:37 | -0.24954 | -78.47181 | 18305 ft | 349 kts | 216° |
| 2026-04-25 07:37 | -0.26974 | -78.48527 | 18163 ft | 341 kts | 207° |
| 2026-04-25 07:38 | -0.29181 | -78.49167 | 18120 ft | 331 kts | 187° |
| 2026-04-25 07:38 | -0.31446 | -78.49184 | 18164 ft | 319 kts | 178° |
| 2026-04-25 07:38 | -0.33688 | -78.49078 | 17495 ft | 332 kts | 176° |
| 2026-04-25 07:38 | -0.36086 | -78.48930 | 16356 ft | 356 kts | 174° |
| 2026-04-25 07:39 | -0.38543 | -78.48282 | 15171 ft | 376 kts | 157° |
| 2026-04-25 07:39 | -0.40785 | -78.47004 | 14407 ft | 361 kts | 146° |
| 2026-04-25 07:39 | -0.42761 | -78.45689 | 14295 ft | 319 kts | 145° |
| 2026-04-25 07:39 | -0.44353 | -78.44427 | 14177 ft | 267 kts | 133° |
| 2026-04-25 07:40 | -0.45132 | -78.42931 | 14120 ft | 225 kts | 105° |
| 2026-04-25 07:40 | -0.45073 | -78.41476 | 14098 ft | 200 kts | 75° |
| 2026-04-25 07:40 | -0.44309 | -78.40422 | 14097 ft | 186 kts | 41° |
| 2026-04-25 07:40 | -0.43180 | -78.39773 | 14209 ft | 193 kts | 27° |
| 2026-04-25 07:41 | -0.41949 | -78.39130 | 14242 ft | 212 kts | 26° |
| 2026-04-25 07:41 | -0.40567 | -78.38433 | 14247 ft | 231 kts | 26° |
| 2026-04-25 07:41 | -0.39132 | -78.37718 | 14231 ft | 226 kts | 26° |
| 2026-04-25 07:41 | -0.37759 | -78.37038 | 14218 ft | 215 kts | 26° |
| 2026-04-25 07:42 | -0.36444 | -78.36391 | 14211 ft | 206 kts | 26° |
| 2026-04-25 07:42 | -0.35180 | -78.35773 | 14207 ft | 199 kts | 26° |
| 2026-04-25 07:42 | -0.33935 | -78.35166 | 14200 ft | 203 kts | 26° |
| 2026-04-25 07:42 | -0.32634 | -78.34531 | 14198 ft | 210 kts | 26° |
| 2026-04-25 07:43 | -0.31325 | -78.33893 | 14191 ft | 209 kts | 26° |
| 2026-04-25 07:43 | -0.30012 | -78.33282 | 14164 ft | 209 kts | 22° |
| 2026-04-25 07:43 | -0.28554 | -78.33259 | 13728 ft | 218 kts | 346° |
| 2026-04-25 07:43 | -0.27263 | -78.33962 | 13117 ft | 211 kts | 327° |
| 2026-04-25 07:44 | -0.25971 | -78.34752 | 12069 ft | 223 kts | 326° |
| 2026-04-25 07:44 | -0.24543 | -78.35409 | 11029 ft | 228 kts | 340° |
| 2026-04-25 07:44 | -0.23024 | -78.35776 | 10308 ft | 220 kts | 348° |
| 2026-04-25 07:44 | -0.21563 | -78.35899 | 9922 ft | 198 kts | 359° |
| 2026-04-25 07:45 | -0.20277 | -78.35820 | 9771 ft | 177 kts | 5° |
| 2026-04-25 07:45 | -0.19069 | -78.35693 | 9760 ft | 175 kts | 7° |
| 2026-04-25 07:45 | -0.17853 | -78.35550 | 9725 ft | 176 kts | 7° |
| 2026-04-25 07:45 | -0.16607 | -78.35402 | 9712 ft | 185 kts | 7° |
| 2026-04-25 07:46 | -0.15311 | -78.35283 | 9784 ft | 187 kts | 5° |
| 2026-04-25 07:46 | -0.13993 | -78.35172 | 9704 ft | 196 kts | 4° |
| 2026-04-25 07:46 | -0.12604 | -78.35117 | 9540 ft | 204 kts | 1° |
| 2026-04-25 07:46 | -0.11213 | -78.35101 | 9661 ft | 197 kts | 1° |
| 2026-04-25 07:47 | -0.09862 | -78.35055 | 9769 ft | 192 kts | 2° |
| 2026-04-25 07:47 | -0.08538 | -78.34977 | 9880 ft | 189 kts | 4° |
| 2026-04-25 07:47 | -0.07232 | -78.34867 | 9948 ft | 192 kts | 5° |
| 2026-04-25 07:47 | -0.05858 | -78.35052 | 9718 ft | 221 kts | 328° |
| 2026-04-25 07:48 | -0.04974 | -78.36353 | 9700 ft | 243 kts | 287° |